Time;durP1;ratioP1;P1;durP2;ratioP2;P2;SDS_P1;SDS_P2;PMS_P1;PMS_P2;Temp;Humidity;BMP_temperature;BMP_pressure;BME280_temperature;BME280_humidity;BME280_pressure;Samples;Min_cycle;Max_cycle;Signal;HPM_P1;HPM_P2
2021/04/05 00:02:24;;;;;;;2.33;1.25;;;7.90;53.50;;;;;;5092448;28;20067;-70
2021/04/05 00:04:50;;;;;;;1.85;1.35;;;7.90;53.40;;;;;;5091588;28;20074;-70
2021/04/05 00:07:16;;;;;;;1.88;1.50;;;8.00;53.40;;;;;;5092707;28;20047;-70
2021/04/05 00:09:42;;;;;;;3.72;1.73;;;7.90;53.50;;;;;;5092767;28;20173;-70
2021/04/05 00:12:10;;;;;;;2.05;1.85;;;7.90;53.40;;;;;;5091618;28;20476;-70
2021/04/05 00:14:41;;;;;;;2.35;1.80;;;7.90;53.30;;;;;;5092332;28;20438;-70
2021/04/05 00:17:07;;;;;;;2.47;1.30;;;8.00;53.20;;;;;;5091072;28;20524;-70
2021/04/05 00:19:34;;;;;;;2.15;1.40;;;8.00;53.20;;;;;;5092565;28;20050;-70
2021/04/05 00:22:00;;;;;;;2.03;1.80;;;8.00;53.10;;;;;;5093981;28;20480;-71
2021/04/05 00:24:26;;;;;;;2.53;1.80;;;8.00;53.20;;;;;;5096593;28;20047;-71
2021/04/05 00:26:52;;;;;;;1.83;1.65;;;8.00;53.10;;;;;;5096460;28;20032;-71
2021/04/05 00:29:17;;;;;;;3.65;1.77;;;8.10;53.20;;;;;;5096254;28;20450;-70
2021/04/05 00:31:43;;;;;;;2.42;1.67;;;8.10;53.30;;;;;;5095032;28;20038;-69
2021/04/05 00:34:09;;;;;;;1.55;1.45;;;8.10;53.30;;;;;;5096035;28;20051;-69
2021/04/05 00:36:35;;;;;;;1.88;1.40;;;8.10;53.20;;;;;;5096580;28;20032;-71
2021/04/05 00:39:03;;;;;;;3.95;1.77;;;8.10;53.30;;;;;;5095962;28;20040;-69
2021/04/05 00:41:29;;;;;;;1.58;1.45;;;8.10;53.30;;;;;;5095172;28;20093;-69
2021/04/05 00:43:55;;;;;;;2.30;1.67;;;8.10;53.30;;;;;;5094755;28;20403;-69
2021/04/05 00:46:23;;;;;;;1.80;1.63;;;8.10;53.30;;;;;;5096395;28;20036;-70
2021/04/05 00:48:50;;;;;;;2.50;1.77;;;8.20;53.30;;;;;;5095707;28;20024;-69
2021/04/05 00:51:20;;;;;;;1.95;1.45;;;8.10;53.40;;;;;;5094728;28;20127;-70
2021/04/05 00:53:48;;;;;;;1.58;1.45;;;8.10;53.40;;;;;;5096142;28;20097;-70
2021/04/05 00:56:17;;;;;;;1.90;1.42;;;8.10;53.40;;;;;;5096015;28;20047;-70
2021/04/05 00:58:43;;;;;;;4.10;1.70;;;8.10;53.50;;;;;;5077548;28;20470;-68
2021/04/05 01:01:13;;;;;;;2.17;1.52;;;8.10;53.60;;;;;;5095733;28;20043;-70
2021/04/05 01:03:41;;;;;;;2.20;1.25;;;8.10;53.70;;;;;;5096093;28;20044;-70
2021/04/05 01:06:23;;;;;;;2.90;1.95;;;8.00;53.80;;;;;;5095664;28;20047;-70
2021/04/05 01:08:49;;;;;;;1.55;1.45;;;8.00;53.70;;;;;;5095772;28;20024;-70
2021/04/05 01:11:18;;;;;;;2.28;1.50;;;8.10;53.80;;;;;;5096004;28;20044;-70
2021/04/05 01:13:45;;;;;;;2.13;1.38;;;8.00;54.00;;;;;;5095494;28;20035;-69
2021/04/05 01:16:11;;;;;;;1.73;1.55;;;8.00;53.90;;;;;;5095741;28;20047;-69
2021/04/05 01:18:39;;;;;;;3.40;1.90;;;8.00;54.00;;;;;;5094142;28;20040;-70
2021/04/05 01:21:06;;;;;;;2.17;1.85;;;8.00;53.90;;;;;;5094047;28;20028;-71
2021/04/05 01:23:32;;;;;;;1.75;1.45;;;7.90;54.10;;;;;;5094196;28;20545;-72
2021/04/05 01:25:59;;;;;;;2.35;1.58;;;8.00;54.10;;;;;;5095181;28;20085;-71
2021/04/05 01:28:25;;;;;;;2.13;1.90;;;8.10;53.90;;;;;;5094109;28;20040;-70
2021/04/05 01:30:53;;;;;;;3.25;1.85;;;8.10;53.90;;;;;;5095726;28;20553;-71
2021/04/05 01:33:31;;;;;;;2.85;1.52;;;8.10;53.80;;;;;;5094496;28;20109;-71
2021/04/05 01:36:01;;;;;;;1.88;1.40;;;8.10;53.70;;;;;;5095215;28;20064;-71
2021/04/05 01:38:32;;;;;;;2.83;1.70;;;8.10;53.60;;;;;;5094804;28;20055;-70
2021/04/05 01:41:05;;;;;;;2.03;1.50;;;8.20;53.60;;;;;;5094801;28;20043;-73
2021/04/05 01:43:32;;;;;;;2.08;1.60;;;8.20;53.60;;;;;;5094034;28;20047;-71
2021/04/05 01:45:59;;;;;;;2.15;1.50;;;8.10;53.70;;;;;;5094896;28;20415;-71
2021/04/05 01:48:27;;;;;;;1.95;1.58;;;8.20;53.60;;;;;;5095015;28;20040;-71
2021/04/05 01:51:16;;;;;;;2.63;1.40;;;8.00;53.70;;;;;;5094740;28;20055;-70
2021/04/05 01:53:44;;;;;;;2.15;1.52;;;8.00;53.90;;;;;;5094879;28;20062;-70
2021/04/05 01:56:12;;;;;;;1.83;1.55;;;8.00;53.90;;;;;;5094567;28;20074;-71
2021/04/05 01:58:41;;;;;;;2.70;1.50;;;8.00;53.80;;;;;;5094464;28;20036;-69
2021/04/05 02:01:09;;;;;;;3.65;1.70;;;7.90;54.00;;;;;;5094890;28;20036;-70
2021/04/05 02:03:36;;;;;;;2.55;1.63;;;8.00;54.10;;;;;;5094375;28;20492;-70
2021/04/05 02:06:04;;;;;;;1.90;1.77;;;8.00;53.90;;;;;;5093614;28;20039;-70
2021/04/05 02:08:32;;;;;;;1.98;1.50;;;8.00;53.90;;;;;;5095157;28;20388;-70
2021/04/05 02:11:07;;;;;;;2.17;1.92;;;8.10;54.00;;;;;;5094577;28;20503;-69
2021/04/05 02:13:33;;;;;;;1.60;1.30;;;8.10;53.90;;;;;;5094489;28;20047;-69
2021/04/05 02:16:00;;;;;;;1.65;1.45;;;8.10;53.90;;;;;;5094415;28;20131;-70
2021/04/05 02:18:26;;;;;;;1.25;1.15;;;8.10;53.70;;;;;;5076106;28;20036;-71
2021/04/05 02:20:52;;;;;;;2.25;1.60;;;8.10;53.60;;;;;;5076072;28;20046;-70
2021/04/05 02:23:19;;;;;;;2.10;1.67;;;8.10;53.80;;;;;;5093128;28;20043;-69
2021/04/05 02:26:09;;;;;;;1.83;1.48;;;8.10;53.70;;;;;;5093733;28;20416;-70
2021/04/05 02:28:51;;;;;;;2.78;1.63;;;8.20;53.70;;;;;;5093937;28;20093;-70
2021/04/05 02:31:20;;;;;;;2.67;1.90;;;8.00;54.00;;;;;;5093110;28;20488;-69
2021/04/05 02:33:49;;;;;;;2.00;1.40;;;8.00;53.90;;;;;;5092566;28;20042;-71
2021/04/05 02:36:18;;;;;;;3.55;1.73;;;8.00;53.90;;;;;;5094524;28;20036;-71
2021/04/05 02:38:47;;;;;;;1.42;1.33;;;8.10;53.80;;;;;;5092598;28;20458;-71
2021/04/05 02:41:14;;;;;;;2.25;1.90;;;8.10;54.00;;;;;;5092648;28;20488;-71
2021/04/05 02:43:40;;;;;;;2.95;1.80;;;8.10;53.90;;;;;;5093850;28;20153;-71
2021/04/05 02:46:11;;;;;;;3.22;1.90;;;8.00;54.10;;;;;;5092375;28;20047;-69
2021/04/05 02:48:42;;;;;;;2.72;1.75;;;7.90;54.40;;;;;;5093973;28;20039;-71
2021/04/05 02:51:09;;;;;;;3.83;2.10;;;7.90;54.40;;;;;;5093650;28;20126;-70
2021/04/05 02:53:43;;;;;;;3.58;1.85;;;8.00;54.30;;;;;;5092281;28;20507;-70
2021/04/05 02:56:10;;;;;;;4.40;2.03;;;7.80;54.60;;;;;;5093399;28;20032;-70
2021/04/05 02:58:40;;;;;;;2.50;2.15;;;7.90;54.50;;;;;;5093645;28;20040;-70
2021/04/05 03:01:08;;;;;;;2.45;1.90;;;7.90;54.40;;;;;;5094307;28;20085;-70
2021/04/05 03:03:39;;;;;;;3.65;2.00;;;7.90;54.40;;;;;;5093460;28;20404;-69
2021/04/05 03:06:08;;;;;;;3.42;1.98;;;7.90;54.50;;;;;;5093252;28;20059;-71
2021/04/05 03:08:34;;;;;;;4.97;2.67;;;7.80;54.50;;;;;;5075390;28;20059;-70
2021/04/05 03:11:03;;;;;;;5.28;1.95;;;7.90;54.50;;;;;;5093331;28;20043;-71
2021/04/05 03:13:31;;;;;;;2.65;2.10;;;7.90;54.60;;;;;;5092024;28;20127;-70
2021/04/05 03:15:58;;;;;;;3.63;2.17;;;7.90;54.70;;;;;;5093463;28;20048;-69
2021/04/05 03:18:26;;;;;;;2.80;2.22;;;7.80;55.00;;;;;;5092945;28;20068;-70
2021/04/05 03:20:52;;;;;;;4.80;2.30;;;7.80;55.00;;;;;;5091954;28;20028;-71
2021/04/05 03:23:22;;;;;;;3.78;2.50;;;7.50;55.60;;;;;;5092852;28;20028;-69
2021/04/05 03:25:48;;;;;;;2.63;2.00;;;7.60;55.50;;;;;;5093148;28;20407;-69
2021/04/05 03:28:14;;;;;;;2.75;2.10;;;7.60;55.70;;;;;;5093197;28;20036;-70
2021/04/05 03:30:43;;;;;;;3.85;2.20;;;7.60;55.50;;;;;;5092829;28;20039;-70
2021/04/05 03:33:15;;;;;;;3.08;2.45;;;7.70;55.40;;;;;;5092810;28;20504;-68
2021/04/05 03:35:44;;;;;;;3.25;2.25;;;7.90;55.10;;;;;;5092710;28;20408;-69
2021/04/05 03:38:14;;;;;;;2.17;1.80;;;7.90;54.90;;;;;;5092901;28;20101;-69
2021/04/05 03:40:42;;;;;;;3.20;2.08;;;7.90;54.90;;;;;;5091913;28;20043;-70
2021/04/05 03:43:15;;;;;;;5.45;2.13;;;8.00;54.80;;;;;;5090305;28;20044;-69
2021/04/05 03:45:50;;;;;;;6.05;2.38;;;8.00;54.80;;;;;;5088342;28;20032;-70
2021/04/05 03:48:37;;;;;;;4.50;1.95;;;8.00;54.90;;;;;;5091274;28;20032;-70
2021/04/05 03:51:08;;;;;;;3.92;2.10;;;8.00;54.90;;;;;;5091333;28;20448;-70
2021/04/05 03:53:34;;;;;;;2.67;2.13;;;8.00;54.80;;;;;;5092969;28;20031;-70
2021/04/05 03:56:09;;;;;;;3.80;2.35;;;8.10;54.70;;;;;;5092760;28;20036;-69
2021/04/05 03:58:36;;;;;;;3.20;2.53;;;8.10;54.70;;;;;;5095275;28;20071;-72
2021/04/05 04:01:07;;;;;;;8.18;2.45;;;8.10;54.70;;;;;;5096852;28;20058;-71
2021/04/05 04:04:00;;;;;;;4.15;2.45;;;8.10;54.60;;;;;;5095767;28;20126;-71
2021/04/05 04:06:34;;;;;;;4.15;2.38;;;8.20;54.60;;;;;;5096237;28;20040;-71
2021/04/05 04:09:02;;;;;;;4.40;2.22;;;8.20;54.70;;;;;;5096629;28;20060;-71
2021/04/05 04:11:31;;;;;;;4.70;2.75;;;8.20;54.80;;;;;;5078324;28;20032;-70
2021/04/05 04:14:02;;;;;;;3.97;2.58;;;8.10;54.90;;;;;;5096415;28;20034;-71
2021/04/05 04:16:29;;;;;;;4.93;2.50;;;8.20;54.80;;;;;;5096353;28;20066;-69
2021/04/05 04:18:58;;;;;;;4.00;2.50;;;8.20;54.70;;;;;;5092625;28;20093;-71
2021/04/05 04:21:24;;;;;;;3.60;2.15;;;8.30;54.60;;;;;;5094960;28;20039;-71
2021/04/05 04:23:50;;;;;;;4.13;2.45;;;8.30;54.60;;;;;;5095919;28;20098;-71
2021/04/05 04:26:17;;;;;;;4.05;2.50;;;8.30;54.60;;;;;;5096387;28;20047;-71
2021/04/05 04:28:44;;;;;;;5.03;2.50;;;8.30;54.50;;;;;;5096842;28;20044;-70
2021/04/05 04:31:11;;;;;;;5.72;2.90;;;8.40;54.50;;;;;;5096318;28;20039;-70
2021/04/05 04:33:38;;;;;;;4.38;2.80;;;8.40;54.50;;;;;;5096103;28;20519;-72
2021/04/05 04:36:05;;;;;;;6.15;2.85;;;8.40;54.60;;;;;;5094925;28;20039;-71
2021/04/05 04:38:32;;;;;;;5.50;3.03;;;8.30;54.60;;;;;;5094902;28;20395;-73
2021/04/05 04:40:58;;;;;;;5.82;2.70;;;8.40;54.60;;;;;;5095443;28;20140;-72
2021/04/05 04:43:24;;;;;;;5.35;3.10;;;8.30;54.90;;;;;;5095440;28;20133;-71
2021/04/05 04:45:50;;;;;;;7.90;2.95;;;8.30;54.80;;;;;;5096024;28;20040;-71
2021/04/05 04:48:15;;;;;;;11.95;4.30;;;8.40;54.70;;;;;;5094743;28;20500;-73
2021/04/05 04:50:41;;;;;;;6.03;3.40;;;8.50;60.40;;;;;;5094483;28;20043;-70
2021/04/05 04:53:07;;;;;;;9.15;3.25;;;8.70;60.30;;;;;;5094034;28;20039;-70
2021/04/05 04:55:35;;;;;;;8.13;3.05;;;8.80;58.20;;;;;;5094473;28;20024;-72
2021/04/05 04:58:03;;;;;;;5.50;3.00;;;8.70;58.10;;;;;;5095859;28;20472;-71
2021/04/05 05:00:32;;;;;;;7.95;3.30;;;8.70;57.30;;;;;;5095462;28;20062;-72
2021/04/05 05:02:59;;;;;;;6.55;3.70;;;8.60;56.20;;;;;;5094384;28;20060;-71
2021/04/05 05:05:30;;;;;;;8.10;3.63;;;8.60;55.60;;;;;;5095401;28;20507;-74
2021/04/05 05:07:56;;;;;;;5.45;3.28;;;8.60;55.80;;;;;;5093600;28;20103;-72
2021/04/05 05:10:24;;;;;;;4.70;3.20;;;8.50;56.10;;;;;;5094200;28;20028;-70
2021/04/05 05:12:51;;;;;;;6.10;2.42;;;8.70;56.10;;;;;;5093899;28;20036;-75
2021/04/05 05:15:17;;;;;;;8.23;3.15;;;8.90;56.00;;;;;;5094056;28;20540;-75
2021/04/05 05:17:47;;;;;;;6.43;3.55;;;9.20;56.50;;;;;;5093566;28;20067;-73
2021/04/05 05:20:15;;;;;;;6.80;3.13;;;9.40;56.30;;;;;;5093373;28;20054;-74
2021/04/05 05:22:49;;;;;;;7.20;3.17;;;9.50;56.10;;;;;;5093724;28;20488;-73
2021/04/05 05:25:18;;;;;;;8.20;3.17;;;9.60;55.10;;;;;;5095193;28;20040;-74
2021/04/05 05:27:55;;;;;;;5.82;2.95;;;9.80;54.90;;;;;;5095073;28;20043;-74
2021/04/05 05:30:22;;;;;;;11.07;3.53;;;9.80;54.80;;;;;;5094044;28;20032;-74
2021/04/05 05:32:54;;;;;;;8.07;3.00;;;9.90;54.40;;;;;;5094831;28;20039;-74
2021/04/05 05:35:20;;;;;;;7.82;3.58;;;10.00;54.10;;;;;;5094034;28;20040;-74
2021/04/05 05:37:47;;;;;;;4.97;3.15;;;10.10;54.20;;;;;;5094935;28;20036;-75
2021/04/05 05:40:21;;;;;;;4.97;2.90;;;10.10;54.00;;;;;;5094984;28;20240;-74
2021/04/05 05:43:20;;;;;;;8.77;2.90;;;10.20;54.20;;;;;;5094926;28;20040;-76
2021/04/05 05:46:09;;;;;;;7.22;3.40;;;10.30;53.80;;;;;;5095340;28;20035;-72
2021/04/05 05:49:01;;;;;;;9.45;3.83;;;10.30;52.90;;;;;;5054864;28;20040;-71
2021/04/05 05:51:54;;;;;;;12.23;3.40;;;10.40;52.60;;;;;;5094675;28;20039;-72
2021/04/05 05:54:44;;;;;;;9.35;3.50;;;10.30;52.30;;;;;;5094810;28;20041;-71
2021/04/05 05:57:33;;;;;;;8.43;3.03;;;10.40;52.10;;;;;;5094553;28;20036;-71
2021/04/05 06:00:07;;;;;;;7.30;3.40;;;10.50;51.80;;;;;;5093241;28;20162;-70
2021/04/05 06:02:51;;;;;;;9.38;3.42;;;10.60;51.60;;;;;;5094354;28;20043;-70
2021/04/05 06:05:42;;;;;;;6.28;3.03;;;10.50;51.30;;;;;;5093166;28;20086;-69
2021/04/05 06:08:17;;;;;;;5.93;2.97;;;10.60;51.30;;;;;;5093422;28;20039;-69
2021/04/05 06:11:22;;;;;;;8.05;3.40;;;10.60;50.90;;;;;;5093253;28;20044;-69
2021/04/05 06:14:01;;;;;;;6.20;3.63;;;10.70;50.80;;;;;;5094388;28;20481;-69
2021/04/05 06:16:45;;;;;;;4.35;3.35;;;10.70;50.70;;;;;;5092472;28;20138;-74
2021/04/05 06:19:32;;;;;;;4.88;2.85;;;10.70;50.50;;;;;;5092651;28;20503;-73
2021/04/05 06:22:06;;;;;;;9.73;3.20;;;10.80;50.60;;;;;;5093979;28;20036;-73
2021/04/05 06:24:44;;;;;;;5.13;2.83;;;10.80;50.50;;;;;;5093774;28;20035;-71
2021/04/05 06:27:34;;;;;;;5.43;2.63;;;10.80;50.50;;;;;;5092159;28;20080;-72
2021/04/05 06:30:25;;;;;;;10.07;2.90;;;10.90;50.20;;;;;;5093859;28;20050;-72
2021/04/05 06:33:05;;;;;;;3.20;2.00;;;10.90;50.30;;;;;;5094039;28;20032;-70
2021/04/05 06:36:09;;;;;;;6.07;2.55;;;11.00;50.10;;;;;;5093797;28;20110;-71
2021/04/05 06:38:42;;;;;;;3.20;2.40;;;11.00;49.70;;;;;;5093714;28;20176;-72
2021/04/05 06:41:25;;;;;;;2.88;1.90;;;11.10;49.70;;;;;;5093159;28;20040;-70
2021/04/05 06:44:12;;;;;;;5.85;2.13;;;11.10;49.70;;;;;;5091744;28;20030;-70
2021/04/05 06:46:50;;;;;;;6.38;2.42;;;11.10;49.40;;;;;;5093179;28;20036;-71
2021/04/05 06:49:53;;;;;;;4.85;2.53;;;11.10;49.40;;;;;;5093382;28;20040;-71
2021/04/05 06:52:34;;;;;;;4.20;2.30;;;11.20;49.40;;;;;;5092336;28;20044;-71
2021/04/05 06:55:27;;;;;;;6.72;2.92;;;11.20;48.80;;;;;;5093608;28;20051;-73
2021/04/05 06:58:23;;;;;;;6.90;2.55;;;11.20;49.00;;;;;;5092552;28;20067;-71
2021/04/05 07:01:07;;;;;;;4.17;2.23;;;11.30;49.00;;;;;;5093126;28;20082;-72
2021/04/05 07:03:52;;;;;;;6.17;2.43;;;11.30;48.80;;;;;;5093102;28;20557;-71
2021/04/05 07:06:41;;;;;;;5.90;2.17;;;11.40;48.60;;;;;;5075099;28;20270;-69
2021/04/05 07:09:24;;;;;;;7.03;2.67;;;11.40;48.40;;;;;;5093114;28;20044;-71
2021/04/05 07:11:53;;;;;;;9.52;2.25;;;11.40;48.30;;;;;;5093020;28;20507;-73
2021/04/05 07:14:46;;;;;;;4.05;1.92;;;11.40;48.30;;;;;;5092980;28;20028;-71
2021/04/05 07:17:39;;;;;;;5.05;1.95;;;11.40;48.00;;;;;;5092868;28;20131;-71
2021/04/05 07:20:23;;;;;;;2.72;2.10;;;11.40;47.90;;;;;;5064243;28;20105;-71
2021/04/05 07:23:35;;;;;;;7.07;2.55;;;11.50;48.30;;;;;;5093071;28;20500;-71
2021/04/05 07:26:14;;;;;;;5.20;1.88;;;11.60;47.90;;;;;;5058397;28;20044;-70
2021/04/05 07:28:47;;;;;;;4.05;2.00;;;11.60;47.70;;;;;;5092785;28;20072;-72
2021/04/05 07:31:15;;;;;;;8.52;2.75;;;11.60;47.60;;;;;;5092612;28;20036;-72
2021/04/05 07:33:44;;;;;;;2.65;2.03;;;11.70;47.60;;;;;;5092233;28;20032;-70
2021/04/05 07:36:21;;;;;;;3.55;1.90;;;11.70;47.60;;;;;;5093035;28;20508;-68
2021/04/05 07:38:53;;;;;;;8.82;2.00;;;11.70;47.50;;;;;;5092884;28;20055;-72
2021/04/05 07:41:41;;;;;;;5.70;2.33;;;11.70;47.40;;;;;;5091619;28;20086;-73
2021/04/05 07:44:30;;;;;;;7.15;2.33;;;11.70;47.20;;;;;;5092790;28;20036;-71
2021/04/05 07:47:36;;;;;;;5.70;2.40;;;11.70;47.10;;;;;;5091279;28;20075;-72
2021/04/05 07:50:25;;;;;;;4.78;2.30;;;11.80;46.70;;;;;;5091790;28;20461;-73
2021/04/05 07:52:59;;;;;;;7.13;2.42;;;11.80;46.80;;;;;;5063316;28;20040;-73
2021/04/05 07:55:26;;;;;;;2.72;2.22;;;11.80;46.30;;;;;;5092955;28;20509;-70
2021/04/05 07:58:15;;;;;;;4.93;2.17;;;11.80;46.60;;;;;;5092462;28;20065;-71
2021/04/05 08:01:10;;;;;;;3.72;1.95;;;11.90;46.50;;;;;;5092386;28;20040;-73
2021/04/05 08:03:54;;;;;;;10.85;2.53;;;11.90;46.30;;;;;;5092308;28;20032;-72
2021/04/05 08:06:28;;;;;;;10.73;2.40;;;11.90;46.50;;;;;;5093021;28;20047;-75
2021/04/05 08:09:00;;;;;;;5.80;2.30;;;11.90;46.60;;;;;;5091746;28;20508;-71
2021/04/05 08:11:52;;;;;;;5.80;2.60;;;11.90;46.40;;;;;;5092361;28;20044;-74
2021/04/05 08:15:01;;;;;;;5.10;2.38;;;12.00;46.30;;;;;;5092770;28;20040;-73
2021/04/05 08:17:30;;;;;;;3.08;2.15;;;12.00;45.90;;;;;;5092130;28;20044;-69
2021/04/05 08:20:02;;;;;;;6.40;2.35;;;12.00;45.70;;;;;;5092161;28;20040;-69
2021/04/05 08:22:52;;;;;;;8.65;2.50;;;12.00;45.70;;;;;;5091236;28;20111;-70
2021/04/05 08:25:46;;;;;;;8.02;2.58;;;12.10;45.80;;;;;;5091212;28;20036;-72
2021/04/05 08:28:35;;;;;;;3.78;1.90;;;12.10;45.70;;;;;;5091253;28;20040;-72
2021/04/05 08:31:26;;;;;;;5.80;2.10;;;12.10;45.10;;;;;;5092028;28;20044;-75
2021/04/05 08:34:19;;;;;;;7.00;2.50;;;12.20;46.00;;;;;;5092287;28;20501;-72
2021/04/05 08:36:55;;;;;;;5.43;1.85;;;12.20;44.90;;;;;;5090815;28;20039;-70
2021/04/05 08:39:38;;;;;;;9.30;2.00;;;12.20;44.60;;;;;;5092745;28;20035;-72
2021/04/05 08:42:25;;;;;;;4.95;2.00;;;12.20;44.80;;;;;;5092170;28;20083;-72
2021/04/05 08:44:56;;;;;;;2.97;1.63;;;12.20;44.20;;;;;;5095880;28;20043;-72
2021/04/05 08:47:36;;;;;;;5.07;1.70;;;12.30;44.50;;;;;;5096109;28;20556;-71
2021/04/05 08:50:07;;;;;;;2.92;1.80;;;12.30;44.30;;;;;;5095859;28;20039;-71
2021/04/05 08:52:39;;;;;;;3.83;2.08;;;12.20;44.00;;;;;;5095793;28;20039;-70
2021/04/05 08:55:07;;;;;;;4.47;1.67;;;12.30;44.30;;;;;;5096219;28;20039;-70
2021/04/05 08:57:42;;;;;;;8.98;2.00;;;12.40;44.40;;;;;;5094533;28;20032;-71
2021/04/05 09:00:11;;;;;;;3.20;1.65;;;12.50;43.90;;;;;;5094631;28;20040;-71
2021/04/05 09:02:45;;;;;;;4.10;1.80;;;12.50;44.00;;;;;;5095716;28;20028;-73
2021/04/05 09:05:26;;;;;;;4.53;2.00;;;12.60;43.90;;;;;;5096153;28;20035;-70
2021/04/05 09:08:10;;;;;;;3.92;1.98;;;12.60;43.80;;;;;;5095630;28;20281;-75
2021/04/05 09:10:47;;;;;;;3.75;1.88;;;12.70;43.90;;;;;;5094379;28;20036;-73
2021/04/05 09:13:27;;;;;;;7.38;1.73;;;12.70;43.80;;;;;;5095880;28;20115;-73
2021/04/05 09:16:30;;;;;;;5.07;2.00;;;12.80;43.60;;;;;;5095379;28;20104;-72
2021/04/05 09:19:27;;;;;;;3.00;1.88;;;12.80;43.30;;;;;;5093911;28;20055;-71
2021/04/05 09:22:11;;;;;;;3.67;1.70;;;13.00;43.00;;;;;;5094974;28;20116;-71
2021/04/05 09:24:56;;;;;;;3.70;1.75;;;13.00;42.50;;;;;;5094555;28;20088;-70
2021/04/05 09:27:46;;;;;;;4.80;1.67;;;13.00;42.20;;;;;;5094605;28;20063;-72
2021/04/05 09:30:31;;;;;;;6.93;1.85;;;13.10;41.80;;;;;;5076627;28;20039;-71
2021/04/05 09:33:28;;;;;;;3.58;1.55;;;13.10;41.10;;;;;;5093491;28;20487;-72
2021/04/05 09:36:31;;;;;;;4.53;1.63;;;13.20;41.30;;;;;;5095085;28;20040;-74
2021/04/05 09:39:22;;;;;;;4.15;1.70;;;13.30;41.00;;;;;;5093529;28;20072;-71
2021/04/05 09:42:18;;;;;;;9.32;4.63;;;13.30;40.80;;;;;;5094803;28;20032;-72
2021/04/05 09:44:53;;;;;;;7.95;3.65;;;13.50;41.20;;;;;;5094940;28;20035;-71
2021/04/05 09:47:57;;;;;;;7.20;2.53;;;13.50;41.00;;;;;;5093794;28;20031;-70
2021/04/05 09:51:01;;;;;;;4.68;1.90;;;13.50;40.40;;;;;;5094686;28;20392;-72
2021/04/05 09:53:44;;;;;;;6.38;1.98;;;13.60;40.70;;;;;;5062585;28;20065;-71
2021/04/05 09:56:20;;;;;;;2.25;1.50;;;13.60;40.70;;;;;;5093892;28;20114;-70
2021/04/05 09:59:05;;;;;;;4.30;1.65;;;13.70;40.20;;;;;;5094910;28;20051;-73
2021/04/05 10:01:32;;;;;;;7.85;1.60;;;13.70;39.70;;;;;;5094548;28;20404;-71
2021/04/05 10:04:03;;;;;;;2.80;1.20;;;13.80;40.30;;;;;;5093072;28;20039;-75
2021/04/05 10:06:33;;;;;;;3.17;1.52;;;13.80;39.80;;;;;;5094972;28;20081;-70
2021/04/05 10:09:01;;;;;;;2.70;1.60;;;13.80;40.00;;;;;;5092856;28;20043;-74
2021/04/05 10:11:35;;;;;;;5.88;1.30;;;13.80;39.90;;;;;;5093011;28;20028;-74
2021/04/05 10:14:07;;;;;;;3.85;1.65;;;13.80;39.60;;;;;;5094075;28;20040;-74
2021/04/05 10:16:36;;;;;;;4.38;1.35;;;13.80;39.90;;;;;;5092582;28;20052;-74
2021/04/05 10:19:11;;;;;;;1.58;1.20;;;13.80;40.00;;;;;;5093815;28;20058;-76
2021/04/05 10:21:42;;;;;;;6.60;1.50;;;13.70;40.10;;;;;;5093187;28;20036;-73
2021/04/05 10:24:10;;;;;;;5.30;1.17;;;13.60;39.70;;;;;;5092983;28;20035;-72
2021/04/05 10:26:38;;;;;;;5.22;1.30;;;13.30;39.20;;;;;;5094010;28;20580;-73
2021/04/05 10:29:10;;;;;;;3.33;1.60;;;13.40;39.80;;;;;;5075964;28;20067;-72
2021/04/05 10:31:38;;;;;;;2.15;1.17;;;13.40;40.20;;;;;;5094129;28;20028;-75
2021/04/05 10:34:07;;;;;;;2.50;1.30;;;13.40;40.00;;;;;;5093744;28;20028;-74
2021/04/05 10:37:10;;;;;;;3.25;1.27;;;13.50;40.30;;;;;;5092886;28;20043;-74
2021/04/05 10:39:37;;;;;;;3.95;1.30;;;13.40;39.70;;;;;;5075261;28;20051;-73
2021/04/05 10:42:13;;;;;;;2.83;1.55;;;13.40;39.60;;;;;;5093956;28;20495;-82
2021/04/05 10:44:43;;;;;;;;;;;13.30;39.70;;;;;;5093173;28;20528;-76
2021/04/05 10:47:14;;;;;;;6.57;0.95;;;13.40;40.00;;;;;;5093985;28;19970;-73
2021/04/05 10:49:41;;;;;;;3.00;0.85;;;13.40;39.90;;;;;;5093826;28;20104;-78
2021/04/05 10:52:19;;;;;;;1.15;0.80;;;13.40;39.90;;;;;;5092652;28;20031;-78
2021/04/05 10:54:56;;;;;;;1.73;1.10;;;13.30;39.40;;;;;;5092460;28;20376;-82
2021/04/05 10:57:35;;;;;;;6.43;1.00;;;13.30;39.70;;;;;;5094155;28;20054;-79
2021/04/05 11:00:14;;;;;;;2.45;1.00;;;13.30;39.50;;;;;;5093675;28;20038;-78
2021/04/05 11:02:46;;;;;;;4.20;0.90;;;13.30;39.30;;;;;;5093307;28;20551;-75
2021/04/05 11:05:16;;;;;;;0.85;0.73;;;13.30;38.90;;;;;;5093157;28;20415;-77
2021/04/05 11:07:48;;;;;;;2.30;0.93;;;13.20;39.40;;;;;;5093105;28;20036;-70
2021/04/05 11:10:19;;;;;;;1.38;1.02;;;13.30;39.60;;;;;;5093591;28;20032;-71
2021/04/05 11:12:56;;;;;;;1.63;0.90;;;13.30;39.60;;;;;;5093103;28;20036;-69
2021/04/05 11:15:25;;;;;;;2.03;1.00;;;13.20;38.50;;;;;;5075062;28;20064;-73
2021/04/05 11:17:56;;;;;;;1.70;0.77;;;13.10;39.10;;;;;;5092767;28;20048;-74
2021/04/05 11:20:29;;;;;;;2.20;1.13;;;13.20;39.10;;;;;;5093656;28;20050;-73
2021/04/05 11:23:18;;;;;;;2.20;1.92;;;13.20;38.90;;;;;;5092904;28;20032;-71
2021/04/05 11:25:51;;;;;;;2.53;1.13;;;13.20;39.00;;;;;;5092500;28;20101;-74
2021/04/05 11:28:23;;;;;;;1.92;1.20;;;13.10;38.70;;;;;;5092669;28;20032;-80
2021/04/05 11:31:00;;;;;;;4.35;1.25;;;13.10;38.70;;;;;;5092958;28;20039;-74
2021/04/05 11:33:33;;;;;;;2.28;1.25;;;13.20;38.80;;;;;;5093231;28;20036;-74
2021/04/05 11:36:01;;;;;;;3.72;1.10;;;13.30;39.00;;;;;;5092892;28;20063;-74
2021/04/05 11:38:29;;;;;;;3.30;1.23;;;13.30;38.90;;;;;;5091440;28;20134;-73
2021/04/05 11:41:02;;;;;;;1.70;1.02;;;13.30;38.90;;;;;;5091516;28;20085;-73
2021/04/05 11:43:31;;;;;;;3.35;1.02;;;13.30;39.10;;;;;;5091576;28;20032;-73
2021/04/05 11:46:10;;;;;;;1.60;0.82;;;13.30;39.00;;;;;;5092758;28;20067;-74
2021/04/05 11:48:36;;;;;;;2.13;1.10;;;13.30;38.70;;;;;;5092727;28;20519;-74
2021/04/05 11:51:03;;;;;;;3.63;0.90;;;13.20;38.60;;;;;;5091231;28;20445;-70
2021/04/05 11:53:32;;;;;;;1.27;0.90;;;13.10;38.40;;;;;;5092367;28;20492;-71
2021/04/05 11:56:03;;;;;;;3.00;1.00;;;13.00;38.60;;;;;;5091778;28;20492;-72
2021/04/05 11:58:35;;;;;;;1.35;0.93;;;13.10;38.80;;;;;;5092788;28;20036;-72
2021/04/05 12:01:03;;;;;;;5.93;1.05;;;13.10;38.70;;;;;;5092874;28;20408;-74
2021/04/05 12:03:59;;;;;;;2.22;0.90;;;13.20;38.60;;;;;;5092523;28;20028;-75
2021/04/05 12:07:09;;;;;;;1.63;0.90;;;13.20;38.50;;;;;;5092694;28;20043;-73
2021/04/05 12:09:46;;;;;;;1.67;0.95;;;13.20;38.30;;;;;;5029947;28;20029;-75
2021/04/05 12:12:32;;;;;;;2.33;1.20;;;13.20;38.80;;;;;;5085792;28;20531;-72
2021/04/05 12:15:01;;;;;;;2.03;1.05;;;13.10;38.00;;;;;;5092788;28;20059;-74
2021/04/05 12:17:28;;;;;;;3.35;0.90;;;13.10;38.70;;;;;;5092702;28;20048;-73
2021/04/05 12:19:56;;;;;;;2.15;1.05;;;13.10;38.80;;;;;;5096221;28;20498;-77
2021/04/05 12:22:27;;;;;;;3.22;1.00;;;13.20;38.90;;;;;;5095380;28;20163;-75
2021/04/05 12:24:54;;;;;;;4.80;1.20;;;13.10;38.80;;;;;;5095618;28;20035;-78
2021/04/05 12:27:28;;;;;;;1.33;1.10;;;13.10;38.80;;;;;;5095711;28;20079;-78
2021/04/05 12:29:55;;;;;;;4.18;1.30;;;12.90;38.40;;;;;;5096710;28;20519;-80
2021/04/05 12:32:22;;;;;;;3.05;1.13;;;13.00;38.90;;;;;;5096322;28;20040;-79
2021/04/05 12:34:58;;;;;;;2.30;1.13;;;13.00;39.30;;;;;;5096111;28;20040;-76
2021/04/05 12:37:28;;;;;;;;;;;13.00;38.90;;;;;;5096420;28;20146;-76
2021/04/05 12:39:59;;;;;;;3.65;1.00;;;13.00;39.10;;;;;;5096241;28;19912;-81
2021/04/05 12:42:34;;;;;;;5.65;1.63;;;13.00;38.60;;;;;;5096069;28;20549;-77
2021/04/05 12:45:04;;;;;;;2.22;1.27;;;13.00;38.90;;;;;;5096251;28;20105;-76
2021/04/05 12:47:34;;;;;;;2.67;1.30;;;13.00;39.00;;;;;;5094688;28;20036;-76
2021/04/05 12:50:08;;;;;;;2.63;1.40;;;13.00;38.50;;;;;;5095890;28;20036;-82
2021/04/05 12:52:38;;;;;;;3.13;1.00;;;12.80;38.70;;;;;;5096432;28;20032;-82
2021/04/05 12:55:16;;;;;;;3.88;1.33;;;12.90;39.20;;;;;;5096186;28;20036;-81
2021/04/05 12:57:42;;;;;;;3.28;0.90;;;12.80;39.20;;;;;;5095958;28;20047;-83
2021/04/05 13:00:14;;;;;;;1.40;1.17;;;12.90;39.50;;;;;;5095509;28;20036;-81
2021/04/05 13:02:48;;;;;;;4.63;1.15;;;12.90;39.60;;;;;;5096150;28;20038;-84
2021/04/05 13:05:47;;;;;;;4.45;1.40;;;12.90;39.60;;;;;;5096035;28;20040;-77
2021/04/05 13:08:25;;;;;;;3.55;1.40;;;12.90;40.00;;;;;;5084168;28;20098;-76
2021/04/05 13:11:13;;;;;;;3.45;1.50;;;13.00;40.40;;;;;;5095261;28;20413;-78
2021/04/05 13:13:49;;;;;;;3.47;1.15;;;13.10;40.80;;;;;;5094906;28;20131;-76
2021/04/05 13:16:23;;;;;;;5.40;1.40;;;13.00;40.70;;;;;;5094914;28;20060;-78
2021/04/05 13:18:52;;;;;;;6.93;1.30;;;13.00;41.70;;;;;;5095461;28;20051;-76
2021/04/05 13:21:20;;;;;;;5.63;1.63;;;13.00;41.40;;;;;;5094086;28;20028;-76
2021/04/05 13:23:52;;;;;;;4.30;1.67;;;13.00;41.20;;;;;;5095545;28;20066;-78
2021/04/05 13:26:49;;;;;;;3.28;1.50;;;13.10;41.60;;;;;;5095229;28;20028;-78
2021/04/05 13:29:24;;;;;;;5.03;1.48;;;13.10;41.30;;;;;;5074749;28;20429;-76
2021/04/05 13:31:54;;;;;;;2.83;1.45;;;13.10;41.20;;;;;;5095005;28;20136;-77